Forest Lake, South Carolina
Current Conditions -  °F | °C
As of 8:53 AM on Tuesday 27 Jan 2015 (Local Time) from KCUB Reporting Station
Broken Clouds Broken Clouds  
Wind Chill: 31°   Ceiling: 12000
Heat Index: 35°   Visibility: 10mi
Dew Point: 28°   Wind: 5mph
Humidity: 76%   Direction: 170°S
Pressure: 29.88"   Gusts: NA
Location:  34.025°N, 80.9562°W
Report Text: KCUB 271353Z AUTO 17004KT 10SM BKN120 02/M02 A2988 RMK AO2 SLP120 T00171022
Loading
Personal Weather Stations






























Interactive Weather Map New forecast layout! Learn more

10-Day Weather Forecast

Advertisements
Track Severe Weather on mobile